createdAt,value
2018-02-27T00:02:03.969Z,9.47
2018-02-27T00:04:30.329Z,9.77
2018-02-27T00:06:57.142Z,10.57
2018-02-27T00:09:23.517Z,10.48
2018-02-27T00:11:50.280Z,9.77
2018-02-27T00:14:17.477Z,9.43
2018-02-27T00:16:44.277Z,9.23
2018-02-27T00:19:11.557Z,9.23
2018-02-27T00:21:39.224Z,11.20
2018-02-27T00:24:06.067Z,8.85
2018-02-27T00:26:32.453Z,8.55
2018-02-27T00:28:58.925Z,9.20
2018-02-27T00:31:25.719Z,9.97
2018-02-27T00:33:52.463Z,8.93
2018-02-27T00:36:19.046Z,8.77
2018-02-27T00:38:45.531Z,9.97
2018-02-27T00:41:12.683Z,8.43
2018-02-27T00:43:40.185Z,7.70
2018-02-27T00:46:06.927Z,8.00
2018-02-27T00:48:33.313Z,6.60
2018-02-27T00:50:59.770Z,5.67
2018-02-27T00:53:26.924Z,5.07
2018-02-27T00:55:53.689Z,6.47
2018-02-27T00:58:21.797Z,5.07
2018-02-27T01:00:49.373Z,4.50
2018-02-27T01:03:16.182Z,5.47
2018-02-27T01:05:42.962Z,4.80
2018-02-27T01:08:09.807Z,5.10
2018-02-27T01:10:36.581Z,4.10
2018-02-27T01:13:02.969Z,4.00
2018-02-27T01:15:29.506Z,4.50
2018-02-27T01:17:56.666Z,4.10
2018-02-27T01:20:23.843Z,4.77
2018-02-27T01:22:51.027Z,4.10
2018-02-27T01:25:17.789Z,4.53
2018-02-27T01:27:44.518Z,3.40
2018-02-27T01:30:10.967Z,3.53
2018-02-27T01:32:38.108Z,3.43
2018-02-27T01:35:05.601Z,3.10
2018-02-27T01:37:32.565Z,3.00
2018-02-27T01:40:00.417Z,2.80
2018-02-27T01:42:27.665Z,3.17
2018-02-27T01:44:54.621Z,2.37
2018-02-27T01:47:21.753Z,2.80
2018-02-27T01:49:49.155Z,2.03
2018-02-27T01:52:15.917Z,2.97
2018-02-27T01:54:42.685Z,3.10
2018-02-27T01:57:09.408Z,4.13
2018-02-27T01:59:36.165Z,2.50
2018-02-27T02:02:03.380Z,3.77
2018-02-27T02:04:30.672Z,4.13
2018-02-27T02:06:57.176Z,4.00
2018-02-27T02:09:24.338Z,3.00
2018-02-27T02:11:51.068Z,2.87
2018-02-27T02:14:18.190Z,3.73
2018-02-27T02:16:45.296Z,4.17
2018-02-27T02:19:12.432Z,3.47
2018-02-27T02:21:39.169Z,2.63
2018-02-27T02:24:05.893Z,2.83
2018-02-27T02:26:32.650Z,3.43
2018-02-27T02:28:59.655Z,3.17
2018-02-27T02:31:26.142Z,3.53
2018-02-27T02:33:53.041Z,3.80
2018-02-27T02:36:19.865Z,3.03
2018-02-27T02:38:46.936Z,3.70
2018-02-27T02:41:13.643Z,4.40
2018-02-27T02:43:40.502Z,3.47
2018-02-27T02:46:07.004Z,3.90
2018-02-27T02:48:33.940Z,3.80
2018-02-27T02:51:00.526Z,4.30
2018-02-27T02:53:27.218Z,3.37
2018-02-27T02:55:53.589Z,3.93
2018-02-27T02:58:19.982Z,4.50
2018-02-27T03:00:47.079Z,3.90
2018-02-27T03:03:13.488Z,4.80
2018-02-27T03:05:41.328Z,4.07
2018-02-27T03:08:08.398Z,4.23
2018-02-27T03:10:35.209Z,3.67
2018-02-27T03:13:02.721Z,3.90
2018-02-27T03:15:29.843Z,3.07
2018-02-27T03:17:56.588Z,3.47
2018-02-27T03:20:24.033Z,2.83
2018-02-27T03:22:50.763Z,2.67
2018-02-27T03:25:17.440Z,2.80
2018-02-27T03:27:43.825Z,3.20
2018-02-27T03:30:11.283Z,2.90
2018-02-27T03:32:38.352Z,2.67
2018-02-27T03:35:05.117Z,2.60
2018-02-27T03:37:31.843Z,3.47
2018-02-27T03:39:58.885Z,2.30
2018-02-27T03:42:25.650Z,2.50
2018-02-27T03:44:52.749Z,1.97
2018-02-27T03:47:19.499Z,3.03
2018-02-27T03:49:47.138Z,2.10
2018-02-27T03:52:14.571Z,2.40
2018-02-27T03:54:41.892Z,2.47
2018-02-27T03:57:10.373Z,2.70
2018-02-27T03:59:37.110Z,2.87
2018-02-27T04:02:03.559Z,2.70
2018-02-27T04:04:31.069Z,2.57
2018-02-27T04:06:57.694Z,3.00
2018-02-27T04:09:24.181Z,2.70
2018-02-27T04:11:52.042Z,2.40
2018-02-27T04:14:19.513Z,2.50
2018-02-27T04:16:46.239Z,2.70
2018-02-27T04:19:14.805Z,2.60
2018-02-27T04:21:41.185Z,2.30
2018-02-27T04:24:07.540Z,3.10
2018-02-27T04:26:34.246Z,2.77
2018-02-27T04:29:00.787Z,1.90
2018-02-27T04:31:27.914Z,2.60
2018-02-27T04:33:54.745Z,2.40
2018-02-27T04:36:21.827Z,3.00
2018-02-27T04:38:48.188Z,3.00
2018-02-27T04:41:15.181Z,2.70
2018-02-27T04:43:41.968Z,2.20
2018-02-27T04:46:08.704Z,2.60
2018-02-27T04:48:41.559Z,2.33
2018-02-27T04:51:09.181Z,2.50
2018-02-27T04:53:35.903Z,2.67
2018-02-27T04:56:03.085Z,3.10
2018-02-27T04:58:30.358Z,2.60
2018-02-27T05:00:57.803Z,2.53
2018-02-27T05:03:24.600Z,2.50
2018-02-27T05:05:51.355Z,2.10
2018-02-27T05:08:18.447Z,2.10
2018-02-27T05:10:45.268Z,2.90
2018-02-27T05:13:13.029Z,2.53
2018-02-27T05:15:40.023Z,2.90
2018-02-27T05:18:07.180Z,2.17
2018-02-27T05:20:33.940Z,2.80
2018-02-27T05:23:00.714Z,2.27
2018-02-27T05:25:30.007Z,2.70
2018-02-27T05:27:56.776Z,2.50
2018-02-27T05:30:25.028Z,2.73
2018-02-27T05:32:52.181Z,2.70
2018-02-27T05:35:18.938Z,3.00
2018-02-27T05:37:45.731Z,2.83
2018-02-27T05:40:12.137Z,2.80
2018-02-27T05:42:40.314Z,2.63
2018-02-27T05:45:08.357Z,2.90
2018-02-27T05:47:35.916Z,2.20
2018-02-27T05:50:03.250Z,2.50
2018-02-27T05:52:30.707Z,3.10
2018-02-27T05:54:58.783Z,2.30
2018-02-27T05:57:26.932Z,2.60
2018-02-27T05:59:53.826Z,2.40
2018-02-27T06:02:20.301Z,2.77
2018-02-27T06:04:48.006Z,2.93
2018-02-27T06:07:14.853Z,2.80
2018-02-27T06:09:42.256Z,2.00
2018-02-27T06:12:09.456Z,2.57
2018-02-27T06:14:37.090Z,2.63
2018-02-27T06:17:04.965Z,2.40
2018-02-27T06:19:32.873Z,2.57
2018-02-27T06:22:00.916Z,2.10
2018-02-27T06:24:28.047Z,2.80
2018-02-27T06:26:54.608Z,2.20
2018-02-27T06:29:21.705Z,2.80
2018-02-27T06:31:48.476Z,2.47
2018-02-27T06:34:15.568Z,2.73
2018-02-27T06:36:42.647Z,3.07
2018-02-27T06:39:10.605Z,2.40
2018-02-27T06:41:37.363Z,1.90
2018-02-27T06:44:04.194Z,3.43
2018-02-27T06:46:31.057Z,3.20
2018-02-27T06:48:57.875Z,2.23
2018-02-27T06:51:24.514Z,3.23
2018-02-27T06:53:52.574Z,3.13
2018-02-27T06:56:20.146Z,2.07
2018-02-27T06:58:46.673Z,2.90
2018-02-27T07:01:13.848Z,1.93
2018-02-27T07:03:41.388Z,2.87
2018-02-27T07:06:07.973Z,3.20
2018-02-27T07:08:36.141Z,2.90
2018-02-27T07:11:03.607Z,2.90
2018-02-27T07:13:30.407Z,2.83
2018-02-27T07:15:57.545Z,3.40
2018-02-27T07:18:24.651Z,2.20
2018-02-27T07:20:52.118Z,2.93
2018-02-27T07:23:18.959Z,2.40
2018-02-27T07:25:46.974Z,3.20
2018-02-27T07:28:14.556Z,2.80
2018-02-27T07:30:41.284Z,2.50
2018-02-27T07:33:09.611Z,3.03
2018-02-27T07:35:44.714Z,3.10
2018-02-27T07:38:26.192Z,2.30
2018-02-27T07:40:53.048Z,2.27
2018-02-27T07:43:21.151Z,2.80
2018-02-27T07:45:48.998Z,1.87
2018-02-27T07:48:16.444Z,2.37
2018-02-27T07:50:43.162Z,1.70
2018-02-27T07:53:09.868Z,2.27
2018-02-27T07:55:37.816Z,2.07
2018-02-27T07:58:04.897Z,2.13
2018-02-27T08:00:33.072Z,2.30
2018-02-27T08:03:00.641Z,2.33
2018-02-27T08:05:27.355Z,1.90
2018-02-27T08:07:55.191Z,2.93
2018-02-27T08:10:23.431Z,2.60
2018-02-27T08:12:49.953Z,1.97
2018-02-27T08:15:18.016Z,2.47
2018-02-27T08:17:45.502Z,2.13
2018-02-27T08:20:12.220Z,2.30
2018-02-27T08:22:38.644Z,2.00
2018-02-27T08:25:05.777Z,2.00
2018-02-27T08:27:32.853Z,1.97
2018-02-27T08:29:59.277Z,1.80
2018-02-27T08:32:25.912Z,2.17
2018-02-27T08:34:52.973Z,1.70
2018-02-27T08:37:20.074Z,2.10
2018-02-27T08:39:46.834Z,2.00
2018-02-27T08:42:14.802Z,2.37
2018-02-27T08:44:41.867Z,2.90
2018-02-27T08:47:08.671Z,1.83
2018-02-27T08:49:36.693Z,2.23
2018-02-27T08:52:03.430Z,2.53
2018-02-27T08:54:29.945Z,2.20
2018-02-27T08:56:56.940Z,2.17
2018-02-27T08:59:23.252Z,2.10
2018-02-27T09:01:49.618Z,3.23
2018-02-27T09:04:16.312Z,2.70
2018-02-27T09:06:42.642Z,2.90
2018-02-27T09:09:09.720Z,2.97
2018-02-27T09:11:37.193Z,2.03
2018-02-27T09:14:03.642Z,2.13
2018-02-27T09:16:30.768Z,2.10
2018-02-27T09:18:58.791Z,2.27
2018-02-27T09:21:25.163Z,2.33
2018-02-27T09:23:52.337Z,2.50
2018-02-27T09:26:20.208Z,2.40
2018-02-27T09:28:47.008Z,1.87
2018-02-27T09:31:13.757Z,2.00
2018-02-27T09:33:41.614Z,1.80
2018-02-27T09:36:09.844Z,1.70
2018-02-27T09:38:36.561Z,1.90
2018-02-27T09:41:03.257Z,1.63
2018-02-27T09:43:29.994Z,1.93
2018-02-27T09:45:56.771Z,2.27
2018-02-27T09:48:23.485Z,2.33
2018-02-27T09:50:49.836Z,2.20
2018-02-27T09:53:16.556Z,2.50
2018-02-27T09:55:44.040Z,2.77
2018-02-27T09:58:11.045Z,3.67
2018-02-27T10:00:37.800Z,3.80
2018-02-27T10:03:04.497Z,3.93
2018-02-27T10:05:31.993Z,3.50
2018-02-27T10:07:59.772Z,3.60
2018-02-27T10:10:26.472Z,3.73
2018-02-27T10:12:53.612Z,2.93
2018-02-27T10:15:19.983Z,3.70
2018-02-27T10:17:46.388Z,4.30
2018-02-27T10:20:13.028Z,4.30
2018-02-27T10:22:39.483Z,3.43
2018-02-27T10:25:05.864Z,3.67
2018-02-27T10:27:33.179Z,3.90
2018-02-27T10:29:59.595Z,3.73
2018-02-27T10:32:27.051Z,5.00
2018-02-27T10:34:54.172Z,4.07
2018-02-27T10:37:20.689Z,4.03
2018-02-27T10:39:47.020Z,3.20
2018-02-27T10:42:13.700Z,2.90
2018-02-27T10:44:40.131Z,2.83
2018-02-27T10:47:07.210Z,3.00
2018-02-27T10:49:33.547Z,3.00
2018-02-27T10:52:00.208Z,2.83
2018-02-27T10:54:26.552Z,2.70
2018-02-27T10:56:53.300Z,2.63
2018-02-27T10:59:21.469Z,3.70
2018-02-27T11:01:54.677Z,2.77
2018-02-27T11:04:21.064Z,2.57
2018-02-27T11:06:47.393Z,2.70
2018-02-27T11:09:13.710Z,2.20
2018-02-27T11:11:41.781Z,2.37
2018-02-27T11:14:08.495Z,1.90
2018-02-27T11:16:34.828Z,2.63
2018-02-27T11:19:01.209Z,2.47
2018-02-27T11:21:27.917Z,2.43
2018-02-27T11:23:54.984Z,2.93
2018-02-27T11:26:21.734Z,2.60
2018-02-27T11:28:48.017Z,3.30
2018-02-27T11:31:14.366Z,2.23
2018-02-27T11:33:41.143Z,3.53
2018-02-27T11:36:07.865Z,2.77
2018-02-27T11:38:34.574Z,2.33
2018-02-27T11:41:01.442Z,1.90
2018-02-27T11:43:28.171Z,3.30
2018-02-27T11:45:54.884Z,2.10
2018-02-27T11:48:22.089Z,2.90
2018-02-27T11:50:48.496Z,2.40
2018-02-27T11:53:14.870Z,2.00
2018-02-27T11:55:41.722Z,2.30
2018-02-27T11:58:08.880Z,2.37
2018-02-27T12:00:36.582Z,2.47
2018-02-27T12:03:02.961Z,2.50
2018-02-27T12:05:29.321Z,3.03
2018-02-27T12:07:56.458Z,2.30
2018-02-27T12:10:22.904Z,2.00
2018-02-27T12:12:49.563Z,2.67
2018-02-27T12:15:17.256Z,2.30
2018-02-27T12:17:43.668Z,2.83
2018-02-27T12:20:10.433Z,2.70
2018-02-27T12:22:37.632Z,2.50
2018-02-27T12:25:04.804Z,2.40
2018-02-27T12:27:31.175Z,2.40
2018-02-27T12:29:58.276Z,2.87
2018-02-27T12:32:25.418Z,3.43
2018-02-27T12:34:52.129Z,3.40
2018-02-27T12:37:19.259Z,2.90
2018-02-27T12:39:46.429Z,2.80
2018-02-27T12:42:13.231Z,2.83
2018-02-27T12:44:39.948Z,3.57
2018-02-27T12:47:06.350Z,3.43
2018-02-27T12:49:33.437Z,1.90
2018-02-27T12:52:01.533Z,3.20
2018-02-27T12:54:28.763Z,2.73
2018-02-27T12:56:55.521Z,3.40
2018-02-27T12:59:23.447Z,3.67
2018-02-27T13:01:51.134Z,3.20
2018-02-27T13:04:19.502Z,3.73
2018-02-27T13:18:53.719Z,4.60
2018-02-27T13:21:21.100Z,4.67
2018-02-27T13:23:48.376Z,4.50
2018-02-27T13:26:15.621Z,4.77
2018-02-27T13:28:42.129Z,5.20
2018-02-27T13:31:08.988Z,5.90
2018-02-27T13:33:35.671Z,6.10
2018-02-27T13:36:03.154Z,6.33
2018-02-27T13:38:30.708Z,6.00
2018-02-27T13:40:57.465Z,7.20
2018-02-27T13:43:24.336Z,6.80
2018-02-27T13:45:50.731Z,6.70
2018-02-27T13:48:17.099Z,7.10
2018-02-27T13:50:43.677Z,5.83
2018-02-27T13:53:11.148Z,6.97
2018-02-27T13:55:37.936Z,8.13
2018-02-27T13:58:05.579Z,8.00
2018-02-27T14:00:31.996Z,6.47
2018-02-27T14:02:58.838Z,7.67
2018-02-27T14:05:26.745Z,7.93
2018-02-27T14:07:53.203Z,6.87
2018-02-27T14:10:19.640Z,6.90
2018-02-27T14:12:46.027Z,6.10
2018-02-27T14:15:12.919Z,5.63
2018-02-27T14:17:40.389Z,8.57
2018-02-27T14:20:08.252Z,7.37
2018-02-27T14:22:36.197Z,7.60
2018-02-27T14:25:02.956Z,6.60
2018-02-27T14:27:30.181Z,9.63
2018-02-27T14:29:57.142Z,9.07
2018-02-27T14:32:24.633Z,8.80
2018-02-27T14:34:51.953Z,10.53
2018-02-27T14:37:19.582Z,9.77
2018-02-27T14:39:47.792Z,11.37
2018-02-27T14:42:14.567Z,10.00
2018-02-27T14:44:42.752Z,7.70
2018-02-27T14:47:09.242Z,8.17
2018-02-27T14:49:36.513Z,8.60
2018-02-27T14:52:02.877Z,8.40
2018-02-27T14:54:30.597Z,8.17
2018-02-27T14:56:57.345Z,11.67
2018-02-27T14:59:25.643Z,9.10
2018-02-27T15:01:53.718Z,8.87
2018-02-27T15:04:20.290Z,9.77
2018-02-27T15:06:49.418Z,9.43
2018-02-27T15:09:17.695Z,7.90
2018-02-27T15:11:48.614Z,8.17
2018-02-27T15:14:16.567Z,9.23
2018-02-27T15:16:43.339Z,7.67
2018-02-27T15:19:10.624Z,10.20
2018-02-27T15:21:37.020Z,10.67
2018-02-27T15:24:03.841Z,11.30
2018-02-27T15:26:31.395Z,10.93
2018-02-27T15:28:57.760Z,9.53
2018-02-27T15:31:24.168Z,9.10
2018-02-27T15:33:51.358Z,10.50
2018-02-27T15:36:18.412Z,9.03
2018-02-27T15:38:45.183Z,10.83
2018-02-27T15:41:11.955Z,10.67
2018-02-27T15:43:40.075Z,8.60
2018-02-27T15:46:08.149Z,8.00
2018-02-27T15:48:35.747Z,8.40
2018-02-27T15:51:02.564Z,8.50
2018-02-27T15:53:29.349Z,7.90
2018-02-27T15:55:57.480Z,5.80
2018-02-27T15:58:23.842Z,7.00
2018-02-27T16:00:50.930Z,7.00
2018-02-27T16:03:19.112Z,6.80
2018-02-27T16:05:45.893Z,7.77
2018-02-27T16:08:13.757Z,6.80
2018-02-27T16:10:40.583Z,5.77
2018-02-27T16:13:07.644Z,6.90
2018-02-27T16:15:35.725Z,5.53
2018-02-27T16:18:02.881Z,6.43
2018-02-27T16:20:31.019Z,6.62
2018-02-27T16:22:58.993Z,6.62
2018-02-27T16:25:27.079Z,6.10
2018-02-27T16:27:55.148Z,6.05
2018-02-27T16:30:23.465Z,5.43
2018-02-27T16:32:51.190Z,3.80
2018-02-27T16:35:19.277Z,6.40
2018-02-27T16:37:45.728Z,6.07
2018-02-27T16:40:12.968Z,5.62
2018-02-27T16:42:40.474Z,6.00
2018-02-27T16:45:06.999Z,5.70
2018-02-27T16:47:34.240Z,5.03
2018-02-27T16:50:02.239Z,5.97
2018-02-27T16:52:30.389Z,6.22
2018-02-27T16:54:58.543Z,5.60
2018-02-27T16:57:25.710Z,6.03
2018-02-27T16:59:53.808Z,6.53
2018-02-27T17:02:20.173Z,5.15
2018-02-27T17:04:47.556Z,7.65
2018-02-27T17:07:14.571Z,7.20
2018-02-27T17:09:41.438Z,5.30
2018-02-27T17:12:08.218Z,6.50
2018-02-27T17:14:36.305Z,5.65
2018-02-27T17:17:03.184Z,4.57
2018-02-27T17:19:29.997Z,5.68
2018-02-27T17:21:56.904Z,7.32
2018-02-27T17:24:25.001Z,6.35
2018-02-27T17:26:51.941Z,6.72
2018-02-27T17:29:19.853Z,5.80
2018-02-27T17:31:47.106Z,5.65
2018-02-27T17:34:13.846Z,6.18
2018-02-27T17:36:41.968Z,6.00
2018-02-27T17:39:10.060Z,6.12
2018-02-27T17:41:37.593Z,5.70
2018-02-27T17:44:04.068Z,6.65
2018-02-27T17:46:32.170Z,5.80
2018-02-27T17:48:59.270Z,6.12
2018-02-27T17:51:27.322Z,6.05
2018-02-27T17:53:55.310Z,6.30
2018-02-27T17:56:22.194Z,6.87
2018-02-27T17:58:50.105Z,5.80
2018-02-27T18:01:17.892Z,6.05
2018-02-27T18:03:46.020Z,5.50
2018-02-27T18:06:12.907Z,5.85
2018-02-27T18:08:39.944Z,7.60
2018-02-27T18:11:06.785Z,6.15
2018-02-27T18:13:33.565Z,6.43
2018-02-27T18:16:01.000Z,6.40
2018-02-27T18:18:29.541Z,6.47
2018-02-27T18:20:56.921Z,5.35
2018-02-27T18:23:24.627Z,6.60
2018-02-27T18:25:51.789Z,5.18
2018-02-27T18:28:18.558Z,6.95
2018-02-27T18:30:47.697Z,5.93
2018-02-27T18:33:14.772Z,6.18
2018-02-27T18:35:41.662Z,5.05
2018-02-27T18:38:09.005Z,5.72
2018-02-27T18:40:36.152Z,5.47
2018-02-27T18:43:03.271Z,6.15
2018-02-27T18:45:29.594Z,4.90
2018-02-27T18:47:57.505Z,5.60
2018-02-27T18:50:25.708Z,6.03
2018-02-27T18:52:53.175Z,4.90
2018-02-27T18:55:20.500Z,5.53
2018-02-27T18:57:47.984Z,4.35
2018-02-27T19:00:14.783Z,5.25
2018-02-27T19:02:41.526Z,3.83
2018-02-27T19:05:09.100Z,4.43
2018-02-27T19:07:36.771Z,4.32
2018-02-27T19:10:03.688Z,3.50
2018-02-27T19:12:31.246Z,4.50
2018-02-27T19:14:58.251Z,4.12
2018-02-27T19:17:26.208Z,4.78
2018-02-27T19:19:52.571Z,3.60
2018-02-27T19:22:20.769Z,3.45
2018-02-27T19:24:47.173Z,3.25
2018-02-27T19:27:14.513Z,4.20
2018-02-27T19:29:41.771Z,4.12
2018-02-27T19:32:08.724Z,3.45
2018-02-27T19:34:36.054Z,3.50
2018-02-27T19:37:04.069Z,4.10
2018-02-27T19:39:33.386Z,4.00
2018-02-27T19:42:00.197Z,3.92
2018-02-27T19:44:27.072Z,3.83
2018-02-27T19:46:55.341Z,3.37
2018-02-27T19:49:23.486Z,4.32
2018-02-27T19:51:50.212Z,3.60
2018-02-27T19:54:18.285Z,4.10
2018-02-27T19:56:46.336Z,4.50
2018-02-27T19:59:14.980Z,4.57
2018-02-27T20:01:42.561Z,2.83
2018-02-27T20:04:09.339Z,4.10
2018-02-27T20:06:36.580Z,3.33
2018-02-27T20:09:03.698Z,4.07
2018-02-27T20:11:30.224Z,4.53
2018-02-27T20:13:57.486Z,4.28
2018-02-27T20:16:25.604Z,4.50
2018-02-27T20:18:52.784Z,4.35
2018-02-27T20:21:19.265Z,4.87
2018-02-27T20:23:52.180Z,3.28
2018-02-27T20:26:19.018Z,4.07
2018-02-27T20:28:52.276Z,4.28
2018-02-27T20:31:19.242Z,4.50
2018-02-27T20:33:47.096Z,4.07
2018-02-27T20:36:14.135Z,4.18
2018-02-27T20:38:46.884Z,4.62
2018-02-27T20:41:16.794Z,3.95
2018-02-27T20:43:43.588Z,4.50
2018-02-27T20:46:10.397Z,4.40
2018-02-27T20:48:37.531Z,4.22
2018-02-27T20:51:04.809Z,4.50
2018-02-27T20:53:31.637Z,5.15
2018-02-27T20:55:59.576Z,5.05
2018-02-27T20:58:25.966Z,4.28
2018-02-27T21:00:53.312Z,4.10
2018-02-27T21:03:21.397Z,4.40
2018-02-27T21:05:48.689Z,4.25
2018-02-27T21:08:15.233Z,4.85
2018-02-27T21:10:41.823Z,4.90
2018-02-27T21:13:09.588Z,3.75
2018-02-27T21:15:36.832Z,3.70
2018-02-27T21:18:03.600Z,4.43
2018-02-27T21:20:30.415Z,4.55
2018-02-27T21:22:57.184Z,3.97
2018-02-27T21:25:24.034Z,4.50
2018-02-27T21:27:50.892Z,4.40
2018-02-27T21:30:18.047Z,3.42
2018-02-27T21:32:44.820Z,3.62
2018-02-27T21:35:11.706Z,5.32
2018-02-27T21:37:38.452Z,4.53
2018-02-27T21:40:05.807Z,6.05
2018-02-27T21:42:32.643Z,3.80
2018-02-27T21:44:59.784Z,4.15
2018-02-27T21:47:26.557Z,5.00
2018-02-27T21:49:53.297Z,3.83
2018-02-27T21:52:20.060Z,3.72
2018-02-27T21:54:46.859Z,5.18
2018-02-27T21:57:13.590Z,4.60
2018-02-27T21:59:40.745Z,4.60
2018-02-27T22:02:07.993Z,5.50
2018-02-27T22:04:35.804Z,4.22
2018-02-27T22:07:02.948Z,4.53
2018-02-27T22:09:30.218Z,4.03
2018-02-27T22:11:56.983Z,4.75
2018-02-27T22:14:24.159Z,3.75
2018-02-27T22:16:51.017Z,5.10
2018-02-27T22:19:17.937Z,4.75
2018-02-27T22:21:44.917Z,5.07
2018-02-27T22:24:12.660Z,4.97
2018-02-27T22:26:39.449Z,4.87
2018-02-27T22:29:06.210Z,4.03
2018-02-27T22:31:33.398Z,5.10
2018-02-27T22:34:01.124Z,4.60
2018-02-27T22:36:29.271Z,5.20
2018-02-27T22:38:56.445Z,5.12
2018-02-27T22:41:23.199Z,4.20
2018-02-27T22:43:50.278Z,4.50
2018-02-27T22:46:17.034Z,5.12
2018-02-27T22:48:44.102Z,4.57
2018-02-27T22:51:10.890Z,4.30
2018-02-27T22:53:37.593Z,4.75
2018-02-27T22:56:04.311Z,4.40
2018-02-27T22:58:30.668Z,5.47
2018-02-27T23:00:59.700Z,4.28
2018-02-27T23:03:27.163Z,4.25
2018-02-27T23:05:55.229Z,4.32
2018-02-27T23:08:21.969Z,4.50
2018-02-27T23:10:48.709Z,3.80
2018-02-27T23:13:15.905Z,3.95
2018-02-27T23:15:43.343Z,4.25
2018-02-27T23:18:10.121Z,4.85
2018-02-27T23:20:37.321Z,4.30
2018-02-27T23:23:04.315Z,4.05
2018-02-27T23:25:36.557Z,4.57
2018-02-27T23:28:09.848Z,3.17
2018-02-27T23:30:37.924Z,4.20
2018-02-27T23:33:07.781Z,3.92
2018-02-27T23:35:34.598Z,4.37
2018-02-27T23:38:01.717Z,4.20
2018-02-27T23:40:28.730Z,5.40
2018-02-27T23:42:55.487Z,4.80
2018-02-27T23:45:22.612Z,5.82
2018-02-27T23:47:49.384Z,4.47
2018-02-27T23:50:16.151Z,4.53
2018-02-27T23:52:43.282Z,4.10
2018-02-27T23:55:10.032Z,3.87
2018-02-27T23:57:37.648Z,4.82
